Terminal Aerodrome Forecast
Issued by NWS

Home | Current Version | Previous Version | Text Only | Print | Product List | Glossary Off
Versions: 1 2 3 4 5 6 7 8 9 10 11 12 13 14 15 16 17 18 19 20

000
FTUS43 KABR 151700
TAFATY
TAF
KATY 151720Z 1518/1618 01025G34KT P6SM OVC010
      TEMPO 1518/1519 4SM -FZRAPL BR
     FM151900 36020G30KT 1SM -SN OVC005
      TEMPO 1519/1523 1/2SM SN
     FM160300 35020G30KT P6SM OVC010=

USA.gov is the U.S. government's official web portal to all federal, state and local government web resources and services.